Time;durP1;ratioP1;P1;durP2;ratioP2;P2;SDS_P1;SDS_P2;PMS_P1;PMS_P2;Temp;Humidity;BMP_temperature;BMP_pressure;BME280_temperature;BME280_humidity;BME280_pressure;Samples;Min_cycle;Max_cycle;Signal;HPM_P1;HPM_P2
2022/04/16 00:02:12;;;;;;;14.63;12.93;;;9.10;99.90;;;;;;4955291;28;20194;-83
2022/04/16 00:04:50;;;;;;;14.73;13.20;;;9.00;99.90;;;;;;4963194;28;20220;-84
2022/04/16 00:07:17;;;;;;;15.53;13.37;;;8.90;99.90;;;;;;4961215;28;20206;-83
2022/04/16 00:09:45;;;;;;;16.23;12.87;;;8.80;99.90;;;;;;4972946;28;20225;-83
2022/04/16 00:12:15;;;;;;;16.20;13.43;;;8.90;99.90;;;;;;4955935;28;20229;-83
2022/04/16 00:14:47;;;;;;;15.17;13.63;;;8.80;99.90;;;;;;4961971;28;20213;-84
2022/04/16 00:17:15;;;;;;;14.57;12.97;;;8.70;99.90;;;;;;4946379;28;20210;-83
2022/04/16 00:19:44;;;;;;;16.63;14.33;;;8.50;99.90;;;;;;4952184;28;20197;-84
2022/04/16 00:22:12;;;;;;;14.07;12.53;;;8.20;99.90;;;;;;4952113;28;20549;-84
2022/04/16 00:24:40;;;;;;;12.97;11.57;;;8.20;99.90;;;;;;4949996;28;20214;-84
2022/04/16 00:27:09;;;;;;;13.63;12.07;;;8.10;99.90;;;;;;4961584;28;20193;-84
2022/04/16 00:29:40;;;;;;;13.67;12.20;;;8.10;99.90;;;;;;4972046;28;20193;-84
2022/04/16 00:32:08;;;;;;;13.80;12.20;;;8.10;99.90;;;;;;4976497;28;20225;-83
2022/04/16 00:34:39;;;;;;;15.63;13.97;;;8.10;99.90;;;;;;4973545;28;20561;-84
2022/04/16 00:37:09;;;;;;;14.43;12.93;;;8.00;99.90;;;;;;4962000;28;20198;-84
2022/04/16 00:39:38;;;;;;;17.50;14.43;;;8.10;99.90;;;;;;4957546;28;20676;-83
2022/04/16 00:42:10;;;;;;;16.03;14.33;;;8.20;99.90;;;;;;4978413;28;20209;-84
2022/04/16 00:44:43;;;;;;;14.33;12.90;;;8.30;99.90;;;;;;4971620;28;20565;-83
2022/04/16 00:47:18;;;;;;;16.17;14.47;;;8.40;99.90;;;;;;4975253;28;20197;-84
2022/04/16 00:49:46;;;;;;;16.37;13.37;;;8.30;99.90;;;;;;4957063;28;20208;-84
2022/04/16 00:52:15;;;;;;;14.87;13.40;;;8.30;99.90;;;;;;4980225;28;20232;-83
2022/04/16 00:54:43;;;;;;;17.63;14.53;;;8.20;99.90;;;;;;4963724;28;20202;-83
2022/04/16 00:57:10;;;;;;;15.40;13.80;;;8.20;99.90;;;;;;4947375;28;20217;-83
2022/04/16 00:59:51;;;;;;;18.37;15.10;;;8.20;99.90;;;;;;4960717;28;20207;-83
2022/04/16 01:02:42;;;;;;;17.10;14.97;;;8.20;99.90;;;;;;4954719;28;20198;-84
2022/04/16 01:05:29;;;;;;;17.60;14.97;;;8.20;99.90;;;;;;4912996;29;20206;-83
2022/04/16 01:08:02;;;;;;;16.13;14.33;;;8.20;99.90;;;;;;4992051;28;20675;-84
2022/04/16 01:10:35;;;;;;;17.13;15.37;;;8.20;99.90;;;;;;4976441;28;20196;-84
2022/04/16 01:13:08;;;;;;;17.13;15.30;;;8.30;99.90;;;;;;4986727;28;20239;-84
2022/04/16 01:15:43;;;;;;;16.77;15.07;;;8.40;99.90;;;;;;4966727;28;20185;-83
2022/04/16 01:18:18;;;;;;;18.07;14.93;;;8.30;99.90;;;;;;4956165;29;20217;-84
2022/04/16 01:20:48;;;;;;;17.97;15.50;;;8.30;99.90;;;;;;4972612;28;20198;-83
2022/04/16 01:23:17;;;;;;;19.80;16.43;;;8.50;99.90;;;;;;4973554;28;20237;-83
2022/04/16 01:25:50;;;;;;;22.10;17.33;;;8.50;99.90;;;;;;4983753;28;20210;-84
2022/04/16 01:28:21;;;;;;;18.97;16.13;;;8.40;99.90;;;;;;4971882;28;20575;-84
2022/04/16 01:30:49;;;;;;;18.50;16.13;;;8.30;99.90;;;;;;4940707;29;20201;-83
2022/04/16 01:33:19;;;;;;;18.10;16.03;;;8.30;99.90;;;;;;4965195;28;20714;-83
2022/04/16 01:35:53;;;;;;;18.50;16.37;;;8.50;99.90;;;;;;4970008;28;20552;-83
2022/04/16 01:38:32;;;;;;;18.30;16.30;;;8.50;99.90;;;;;;4975665;28;20201;-83
2022/04/16 01:41:00;;;;;;;18.80;16.50;;;8.40;99.90;;;;;;4973063;28;20558;-82
2022/04/16 01:43:41;;;;;;;18.03;16.13;;;8.30;99.90;;;;;;4972960;28;20225;-82
2022/04/16 01:46:09;;;;;;;18.87;15.63;;;8.30;99.90;;;;;;4974798;28;20205;-82
2022/04/16 01:48:36;;;;;;;18.17;15.33;;;8.60;99.90;;;;;;4962714;29;20205;-82
2022/04/16 01:51:05;;;;;;;21.43;17.90;;;8.90;99.90;;;;;;4963242;28;20201;-82
2022/04/16 01:53:34;;;;;;;20.07;17.13;;;8.90;99.90;;;;;;4972869;28;20221;-82
2022/04/16 01:56:02;;;;;;;21.30;18.13;;;8.80;99.90;;;;;;4997699;28;20189;-82
2022/04/16 01:58:38;;;;;;;19.50;17.43;;;8.80;99.90;;;;;;4978662;28;20197;-82
2022/04/16 02:01:12;;;;;;;19.30;16.57;;;8.60;99.90;;;;;;4981623;28;20201;-82
2022/04/16 02:03:40;;;;;;;22.10;17.47;;;8.60;99.90;;;;;;4975104;28;20220;-82
2022/04/16 02:06:14;;;;;;;18.60;16.10;;;8.50;99.90;;;;;;4984304;28;20200;-82
2022/04/16 02:08:44;;;;;;;22.43;18.10;;;8.50;99.90;;;;;;4982462;28;20206;-82
2022/04/16 02:11:16;;;;;;;20.80;17.93;;;8.30;99.90;;;;;;4991886;28;20194;-82
2022/04/16 02:13:49;;;;;;;19.37;16.93;;;8.30;99.90;;;;;;4972688;28;20303;-82
2022/04/16 02:16:16;;;;;;;19.53;16.40;;;8.20;99.90;;;;;;4966563;28;20205;-82
2022/04/16 02:18:46;;;;;;;17.57;15.60;;;8.10;99.90;;;;;;4993336;28;20202;-82
2022/04/16 02:21:17;;;;;;;17.03;15.20;;;8.00;99.90;;;;;;4980575;28;20202;-82
2022/04/16 02:23:51;;;;;;;22.23;16.03;;;8.00;99.90;;;;;;4982759;28;20217;-82
2022/04/16 02:26:20;;;;;;;17.07;14.03;;;7.90;99.90;;;;;;4984816;28;20210;-82
2022/04/16 02:28:50;;;;;;;19.40;15.37;;;7.80;99.90;;;;;;4981631;28;20201;-81
2022/04/16 02:31:18;;;;;;;16.43;14.43;;;7.70;99.90;;;;;;4976315;28;20203;-82
2022/04/16 02:33:46;;;;;;;18.90;16.30;;;7.70;99.90;;;;;;4963602;28;20264;-82
2022/04/16 02:36:13;;;;;;;22.63;16.27;;;7.70;99.90;;;;;;4947316;29;20217;-82
2022/04/16 02:38:41;;;;;;;18.77;16.77;;;7.70;99.90;;;;;;4967012;28;20205;-82
2022/04/16 02:41:12;;;;;;;19.47;17.07;;;7.70;99.90;;;;;;4972825;28;20201;-82
2022/04/16 02:43:39;;;;;;;23.37;17.90;;;7.60;99.90;;;;;;4992027;28;20214;-82
2022/04/16 02:48:52;;;;;;;19.97;17.47;;;7.70;99.90;;;;;;4968688;29;20204;-82
2022/04/16 02:51:27;;;;;;;18.40;16.47;;;7.60;99.90;;;;;;4968477;28;20196;-82
2022/04/16 02:53:59;;;;;;;23.57;17.97;;;7.70;99.90;;;;;;4994606;28;20232;-82
2022/04/16 02:56:29;;;;;;;25.90;17.73;;;7.60;99.90;;;;;;4972720;29;20205;-82
2022/04/16 02:59:01;;;;;;;19.40;16.87;;;7.60;99.90;;;;;;4972120;28;20201;-82
2022/04/16 03:01:31;;;;;;;20.47;17.23;;;7.70;99.90;;;;;;4964568;28;20190;-82
2022/04/16 03:04:02;;;;;;;20.30;18.13;;;7.80;99.90;;;;;;4976608;28;20224;-82
2022/04/16 03:06:29;;;;;;;22.57;18.80;;;7.90;99.90;;;;;;4974456;29;20185;-84
2022/04/16 03:08:57;;;;;;;21.83;19.37;;;8.10;99.90;;;;;;4982641;28;20202;-81
2022/04/16 03:11:24;;;;;;;20.63;17.53;;;7.90;99.90;;;;;;4972023;28;20205;-81
2022/04/16 03:13:53;;;;;;;20.70;18.33;;;7.90;99.90;;;;;;4957322;28;20225;-80
2022/04/16 03:19:06;;;;;;;22.70;19.13;;;7.90;99.90;;;;;;4965637;28;20198;-81
2022/04/16 03:21:34;;;;;;;24.17;19.87;;;7.90;99.90;;;;;;4982981;28;20205;-81
2022/04/16 03:24:01;;;;;;;20.97;18.07;;;7.80;99.90;;;;;;4984219;28;20221;-81
2022/04/16 03:26:33;;;;;;;21.90;18.60;;;7.90;99.90;;;;;;4980154;28;20222;-81
2022/04/16 03:29:02;;;;;;;23.57;19.70;;;7.70;99.90;;;;;;4962314;28;20194;-81
2022/04/16 03:31:29;;;;;;;21.83;19.53;;;7.70;99.90;;;;;;4978330;28;20201;-81
2022/04/16 03:33:59;;;;;;;22.57;18.93;;;7.70;99.90;;;;;;4967114;28;20228;-81
2022/04/16 03:36:26;;;;;;;25.20;20.03;;;7.70;99.90;;;;;;4976446;28;20206;-81
2022/04/16 03:38:56;;;;;;;23.10;19.77;;;7.80;99.90;;;;;;4966786;28;20205;-81
2022/04/16 03:41:24;;;;;;;23.80;20.23;;;7.70;99.90;;;;;;4980533;28;20208;-81
2022/04/16 03:43:52;;;;;;;24.80;19.80;;;7.80;99.90;;;;;;4959888;28;20214;-82
2022/04/16 03:46:22;;;;;;;24.60;20.33;;;7.90;99.90;;;;;;4972257;28;20206;-81
2022/04/16 03:48:50;;;;;;;24.33;19.50;;;8.00;99.90;;;;;;4956955;28;20201;-81
2022/04/16 03:51:17;;;;;;;24.13;18.50;;;8.40;99.90;;;;;;4966363;28;20214;-81
2022/04/16 03:53:45;;;;;;;24.60;21.23;;;8.40;99.90;;;;;;4963500;28;20217;-81
2022/04/16 04:01:40;;;;;;;24.37;21.27;;;9.00;99.90;;;;;;4966270;28;20194;-81
2022/04/16 04:04:07;;;;;;;24.80;20.63;;;8.70;99.90;;;;;;4960205;28;20233;-81
2022/04/16 04:06:38;;;;;;;23.53;20.87;;;8.70;99.90;;;;;;4966474;28;20202;-81
2022/04/16 04:09:06;;;;;;;24.10;21.50;;;8.60;99.90;;;;;;4969321;28;20213;-81
2022/04/16 04:11:34;;;;;;;24.73;20.47;;;8.40;99.90;;;;;;4957622;28;20209;-81
2022/04/16 04:14:01;;;;;;;25.83;21.13;;;8.30;99.90;;;;;;4969404;28;20245;-81
2022/04/16 04:16:29;;;;;;;26.43;21.53;;;8.20;99.90;;;;;;4958300;28;20194;-81
2022/04/16 04:19:00;;;;;;;26.20;22.20;;;7.90;99.90;;;;;;4974149;28;20213;-81
2022/04/16 04:21:30;;;;;;;25.40;21.87;;;7.80;99.90;;;;;;4954622;28;20194;-81
2022/04/16 04:23:58;;;;;;;24.80;21.10;;;7.90;99.90;;;;;;4970483;28;20253;-81
2022/04/16 04:26:26;;;;;;;24.77;20.83;;;7.90;99.90;;;;;;4960570;28;20209;-80
2022/04/16 04:28:54;;;;;;;23.93;20.23;;;7.90;99.90;;;;;;4955666;28;20350;-80
2022/04/16 04:35:22;;;;;;;25.13;20.77;;;7.70;99.90;;;;;;4964039;28;20228;-81
2022/04/16 04:37:54;;;;;;;25.57;20.97;;;7.70;99.90;;;;;;4960056;28;20202;-80
2022/04/16 04:40:34;;;;;;;25.07;21.20;;;7.70;99.90;;;;;;4958149;28;20212;-80
2022/04/16 04:43:01;;;;;;;24.73;20.73;;;7.80;99.90;;;;;;4971507;28;20815;-80
2022/04/16 04:45:29;;;;;;;25.13;21.03;;;7.70;99.90;;;;;;4950938;28;20220;-80
2022/04/16 04:47:56;;;;;;;27.73;21.80;;;7.80;99.90;;;;;;4970753;28;20205;-80
2022/04/16 04:50:25;;;;;;;27.37;22.23;;;8.00;99.90;;;;;;4977101;28;20217;-80
2022/04/16 04:53:30;;;;;;;25.67;21.80;;;8.00;99.90;;;;;;4959149;28;20226;-80
2022/04/16 04:56:21;;;;;;;26.00;22.07;;;8.10;99.90;;;;;;4960877;28;20201;-80
2022/04/16 04:58:55;;;;;;;24.37;20.80;;;8.10;99.90;;;;;;4976134;28;20202;-80
2022/04/16 05:01:29;;;;;;;24.73;21.53;;;8.10;99.90;;;;;;4959188;28;20778;-80
2022/04/16 05:03:57;;;;;;;25.07;20.63;;;8.40;99.90;;;;;;4960499;28;20218;-81
2022/04/16 05:10:18;;;;;;;24.73;20.97;;;8.30;99.90;;;;;;4947076;28;20217;-80
2022/04/16 05:12:53;;;;;;;25.53;21.33;;;8.10;99.90;;;;;;4948689;28;20218;-80
2022/04/16 05:15:20;;;;;;;26.43;22.23;;;8.00;99.90;;;;;;4964763;28;20326;-79
2022/04/16 05:18:31;;;;;;;27.07;22.10;;;7.90;99.90;;;;;;4972935;28;20206;-80
2022/04/16 05:20:59;;;;;;;25.80;21.10;;;7.80;99.90;;;;;;4964728;28;20755;-80
2022/04/16 05:24:38;;;;;;;28.77;23.00;;;7.90;99.90;;;;;;4960284;28;20239;-80
2022/04/16 05:27:09;;;;;;;26.60;21.17;;;7.80;99.90;;;;;;4997129;23;20228;-77
2022/04/16 05:29:56;;;;;;;25.70;21.03;;;7.70;99.90;;;;;;4983431;28;20197;-78
2022/04/16 05:32:25;;;;;;;25.07;22.00;;;7.70;99.90;;;;;;4983236;28;20227;-77
2022/04/16 05:34:55;;;;;;;25.37;21.80;;;7.80;99.90;;;;;;4988835;28;20212;-76
2022/04/16 05:37:23;;;;;;;25.27;22.37;;;8.00;99.90;;;;;;4998869;28;20240;-77
2022/04/16 05:39:50;;;;;;;27.67;22.87;;;8.10;99.90;;;;;;4967497;28;20209;-77
2022/04/16 05:42:19;;;;;;;26.53;22.60;;;7.90;99.90;;;;;;4962744;28;20559;-77
2022/04/16 05:44:47;;;;;;;29.77;23.33;;;7.90;99.90;;;;;;4983808;28;20197;-80
2022/04/16 05:47:14;;;;;;;26.40;22.87;;;8.20;99.90;;;;;;4960304;28;20232;-77
2022/04/16 05:49:44;;;;;;;26.13;22.10;;;8.20;99.90;;;;;;4967128;28;20197;-76
2022/04/16 05:52:11;;;;;;;25.37;21.80;;;8.40;99.90;;;;;;4966927;28;20200;-77
2022/04/16 05:54:39;;;;;;;28.00;22.93;;;8.50;99.90;;;;;;4961383;28;20221;-77
2022/04/16 05:57:08;;;;;;;26.80;23.17;;;8.50;99.90;;;;;;4978123;28;20229;-77
2022/04/16 05:59:37;;;;;;;28.87;23.90;;;8.30;99.90;;;;;;4963605;28;20567;-77
2022/04/16 06:02:04;;;;;;;27.53;23.87;;;8.50;99.90;;;;;;4962980;28;20206;-77
2022/04/16 06:04:33;;;;;;;30.57;25.00;;;8.50;99.90;;;;;;4960802;28;20668;-78
2022/04/16 06:07:00;;;;;;;27.80;23.47;;;8.60;99.90;;;;;;4960759;28;20590;-76
2022/04/16 06:09:28;;;;;;;30.07;23.57;;;8.70;99.90;;;;;;4962959;28;20197;-78
2022/04/16 06:12:01;;;;;;;28.97;24.47;;;8.80;99.90;;;;;;4968667;28;20212;-77
2022/04/16 06:14:29;;;;;;;27.57;23.83;;;9.00;99.90;;;;;;4961396;28;20209;-76
2022/04/16 06:16:58;;;;;;;28.17;22.87;;;8.90;99.90;;;;;;4967724;28;20213;-77
2022/04/16 06:19:25;;;;;;;26.83;22.60;;;9.10;99.90;;;;;;4981250;28;20203;-77
2022/04/16 06:21:53;;;;;;;29.00;24.30;;;9.20;99.90;;;;;;4967488;28;20193;-77
2022/04/16 06:24:20;;;;;;;31.10;25.27;;;9.30;99.90;;;;;;4962508;28;20206;-76
2022/04/16 06:26:48;;;;;;;28.87;23.77;;;9.30;99.90;;;;;;4967807;28;20237;-76
2022/04/16 06:29:16;;;;;;;27.77;23.77;;;9.20;99.90;;;;;;4980273;28;20202;-76
2022/04/16 06:31:44;;;;;;;28.27;24.60;;;9.30;99.90;;;;;;4988757;28;20200;-75
2022/04/16 06:34:12;;;;;;;29.30;24.40;;;9.40;99.90;;;;;;4989759;28;20200;-76
2022/04/16 06:36:40;;;;;;;31.10;25.10;;;9.50;99.90;;;;;;4953698;28;20221;-75
2022/04/16 06:39:07;;;;;;;32.73;24.93;;;9.60;99.90;;;;;;4950591;28;20220;-76
2022/04/16 06:41:35;;;;;;;29.33;23.80;;;9.40;99.90;;;;;;4973458;28;20197;-75
2022/04/16 06:44:02;;;;;;;30.67;25.20;;;9.60;99.90;;;;;;4950230;28;20205;-76
2022/04/16 06:46:30;;;;;;;27.83;22.70;;;9.60;99.90;;;;;;4975057;28;20220;-75
2022/04/16 06:48:57;;;;;;;27.07;23.20;;;9.50;99.90;;;;;;4980559;28;20196;-75
2022/04/16 06:51:26;;;;;;;27.17;22.27;;;9.40;99.90;;;;;;4967536;28;20201;-75
2022/04/16 06:53:54;;;;;;;25.97;20.33;;;9.40;99.90;;;;;;4950224;29;20205;-75
2022/04/16 06:56:21;;;;;;;22.63;20.17;;;9.30;99.90;;;;;;4964029;28;20228;-76
2022/04/16 06:58:50;;;;;;;24.50;19.60;;;9.50;99.90;;;;;;4966167;28;20201;-75
2022/04/16 07:01:17;;;;;;;23.37;20.03;;;9.60;99.90;;;;;;4963531;28;20220;-76
2022/04/16 07:03:45;;;;;;;23.43;18.90;;;9.60;99.90;;;;;;4967418;28;20201;-77
2022/04/16 07:06:12;;;;;;;25.00;19.23;;;9.70;99.90;;;;;;4970201;28;20189;-76
2022/04/16 07:08:41;;;;;;;20.27;17.93;;;9.60;99.90;;;;;;4962551;28;20207;-76
2022/04/16 07:11:08;;;;;;;21.73;17.93;;;9.60;99.90;;;;;;4966249;28;20216;-76
2022/04/16 07:13:35;;;;;;;21.17;16.97;;;9.70;99.90;;;;;;4984324;28;20201;-76
2022/04/16 07:16:05;;;;;;;20.70;16.50;;;9.90;99.90;;;;;;4976359;28;20225;-75
2022/04/16 07:18:33;;;;;;;23.83;18.07;;;9.90;99.90;;;;;;4951645;28;20202;-75
2022/04/16 07:21:00;;;;;;;20.70;17.30;;;9.90;99.90;;;;;;4950970;28;20209;-78
2022/04/16 07:23:28;;;;;;;20.00;16.97;;;10.10;99.90;;;;;;4961602;28;20213;-76
2022/04/16 07:25:57;;;;;;;19.00;15.70;;;10.20;99.90;;;;;;4983036;28;20202;-77
2022/04/16 07:28:26;;;;;;;19.70;15.37;;;10.20;99.90;;;;;;4984357;28;20233;-76
2022/04/16 07:30:54;;;;;;;20.03;16.40;;;10.10;99.90;;;;;;4964531;28;20202;-79
2022/04/16 07:33:21;;;;;;;19.67;16.00;;;10.10;99.90;;;;;;4967292;28;20225;-77
2022/04/16 07:35:49;;;;;;;19.33;16.50;;;10.00;99.90;;;;;;4973422;28;20694;-77
2022/04/16 07:38:16;;;;;;;20.33;16.23;;;10.30;99.90;;;;;;4983883;28;20220;-76
2022/04/16 07:40:44;;;;;;;19.70;17.23;;;10.40;99.90;;;;;;4982287;28;20200;-76
2022/04/16 07:43:14;;;;;;;21.43;17.13;;;10.50;99.90;;;;;;4974179;28;20216;-76
2022/04/16 07:45:42;;;;;;;21.70;17.03;;;10.50;99.90;;;;;;4980436;28;20209;-76
2022/04/16 07:48:10;;;;;;;19.80;16.67;;;10.70;99.90;;;;;;4974380;28;20216;-77
2022/04/16 07:50:37;;;;;;;22.13;17.23;;;10.80;99.90;;;;;;4972345;28;20205;-76
2022/04/16 07:53:06;;;;;;;20.63;17.40;;;10.80;99.90;;;;;;4998622;28;20212;-77
2022/04/16 07:55:34;;;;;;;18.30;15.93;;;10.80;99.90;;;;;;4973545;28;20220;-77
2022/04/16 07:58:01;;;;;;;21.33;16.13;;;11.00;99.90;;;;;;4982399;28;20590;-77
2022/04/16 08:00:30;;;;;;;19.70;16.53;;;11.00;99.90;;;;;;5010731;28;20558;-76
2022/04/16 08:02:58;;;;;;;20.50;16.57;;;11.00;99.90;;;;;;4982068;28;20204;-77
2022/04/16 08:05:25;;;;;;;20.13;16.37;;;11.00;99.90;;;;;;4990483;28;20194;-77
2022/04/16 08:07:53;;;;;;;18.70;15.93;;;11.10;99.90;;;;;;4964725;28;20232;-76
2022/04/16 08:10:20;;;;;;;20.20;16.53;;;11.20;99.90;;;;;;4990962;28;20197;-77
2022/04/16 08:12:48;;;;;;;21.20;16.80;;;11.20;99.90;;;;;;4988476;28;20558;-77
2022/04/16 08:15:15;;;;;;;18.47;16.10;;;11.10;99.90;;;;;;4967854;28;20222;-76
2022/04/16 08:17:44;;;;;;;17.93;15.97;;;11.20;99.90;;;;;;4988469;28;20213;-77
2022/04/16 08:20:11;;;;;;;21.03;16.73;;;11.40;99.90;;;;;;4974542;28;20588;-76
2022/04/16 08:22:46;;;;;;;20.10;16.67;;;11.40;99.90;;;;;;4977046;28;20223;-76
2022/04/16 08:27:58;;;;;;;18.00;15.77;;;11.30;99.90;;;;;;4973983;28;20714;-77
2022/04/16 08:30:25;;;;;;;19.27;15.90;;;11.30;99.90;;;;;;4970624;28;20202;-77
2022/04/16 08:33:02;;;;;;;18.73;14.77;;;11.40;99.90;;;;;;4971382;28;20212;-78
2022/04/16 08:35:30;;;;;;;18.83;14.77;;;11.40;99.90;;;;;;4991134;28;20205;-78
2022/04/16 08:37:57;;;;;;;17.07;14.37;;;11.30;99.90;;;;;;4970126;28;20240;-79
2022/04/16 08:40:24;;;;;;;16.37;14.43;;;11.50;99.90;;;;;;4970566;28;20670;-79
2022/04/16 08:42:52;;;;;;;17.77;15.60;;;11.40;99.90;;;;;;4974282;28;20204;-79
2022/04/16 08:45:20;;;;;;;15.73;12.33;;;11.40;99.90;;;;;;4958744;28;20202;-79
2022/04/16 08:47:47;;;;;;;16.17;13.50;;;11.30;99.90;;;;;;4992398;28;20228;-79
2022/04/16 08:50:16;;;;;;;15.40;12.33;;;11.50;99.90;;;;;;4977166;28;20204;-79
2022/04/16 08:52:43;;;;;;;17.10;14.00;;;11.40;99.90;;;;;;4954264;29;20201;-79
2022/04/16 08:55:13;;;;;;;16.33;12.60;;;11.50;99.90;;;;;;4972245;28;20204;-79
2022/04/16 08:57:41;;;;;;;14.27;11.43;;;11.70;99.90;;;;;;4969161;28;20232;-79
2022/04/16 09:00:13;;;;;;;15.77;12.77;;;11.60;99.90;;;;;;4954634;29;20547;-79
2022/04/16 09:02:50;;;;;;;15.23;12.63;;;11.60;99.90;;;;;;4977139;28;20208;-79
2022/04/16 09:05:20;;;;;;;14.13;11.60;;;11.80;99.90;;;;;;4963964;28;20212;-79
2022/04/16 09:07:50;;;;;;;13.73;11.00;;;11.70;99.90;;;;;;4966872;28;20575;-79
2022/04/16 09:10:17;;;;;;;13.40;11.20;;;11.70;99.90;;;;;;4954449;28;20205;-79
2022/04/16 09:12:45;;;;;;;13.23;11.80;;;12.00;99.90;;;;;;4953946;29;20201;-79
2022/04/16 09:15:16;;;;;;;14.10;12.63;;;12.00;99.90;;;;;;4969031;28;20282;-80
2022/04/16 09:17:43;;;;;;;13.30;11.90;;;12.00;99.90;;;;;;4983734;28;20223;-79
2022/04/16 09:20:12;;;;;;;12.93;11.67;;;11.70;99.90;;;;;;4976458;28;20190;-79
2022/04/16 09:22:48;;;;;;;13.87;12.37;;;11.90;99.90;;;;;;4966495;28;20196;-80
2022/04/16 09:25:17;;;;;;;13.53;12.07;;;12.00;99.90;;;;;;4980175;28;20212;-79
2022/04/16 09:27:46;;;;;;;12.87;11.37;;;12.10;99.90;;;;;;5007851;28;20228;-79
2022/04/16 09:30:22;;;;;;;12.60;10.93;;;12.10;99.90;;;;;;4991893;28;20204;-79
2022/04/16 09:32:49;;;;;;;12.97;10.07;;;12.00;99.90;;;;;;4981001;28;20204;-79
2022/04/16 09:35:31;;;;;;;10.90;9.80;;;12.10;99.90;;;;;;4980301;28;20207;-79
2022/04/16 09:38:01;;;;;;;11.53;9.47;;;12.20;99.20;;;;;;4991741;28;20223;-79
2022/04/16 09:40:29;;;;;;;10.07;9.17;;;12.00;98.70;;;;;;4993771;28;20192;-79
2022/04/16 09:42:59;;;;;;;12.30;8.60;;;12.10;98.80;;;;;;4976915;28;20213;-79
2022/04/16 09:45:30;;;;;;;9.67;8.60;;;12.30;98.00;;;;;;4982812;28;20192;-79
2022/04/16 09:47:59;;;;;;;9.27;8.37;;;12.40;97.40;;;;;;4979951;28;20217;-79
2022/04/16 09:50:29;;;;;;;11.37;9.47;;;12.30;96.80;;;;;;4984034;28;20220;-80
2022/04/16 09:52:57;;;;;;;10.27;8.90;;;12.40;96.80;;;;;;4966888;28;20197;-79
2022/04/16 09:55:27;;;;;;;11.30;8.90;;;12.50;96.60;;;;;;4981925;28;20209;-79
2022/04/16 09:57:58;;;;;;;10.90;9.80;;;12.60;97.00;;;;;;4991263;28;20243;-79
2022/04/16 10:00:26;;;;;;;9.50;8.50;;;12.70;96.80;;;;;;4991690;28;20211;-79
2022/04/16 10:02:54;;;;;;;8.43;7.60;;;12.70;96.40;;;;;;4991315;28;20200;-79
2022/04/16 10:05:23;;;;;;;8.55;7.65;;;12.70;94.80;;;;;;4970347;28;20208;-79
2022/04/16 10:07:54;;;;;;;9.02;8.02;;;12.80;94.40;;;;;;4970938;28;20216;-79
2022/04/16 10:10:30;;;;;;;8.57;7.63;;;12.80;94.60;;;;;;4983610;28;20200;-79
2022/04/16 10:13:03;;;;;;;8.35;7.55;;;12.90;94.20;;;;;;4991625;28;20203;-79
2022/04/16 10:15:43;;;;;;;8.07;7.32;;;13.00;94.00;;;;;;4998718;28;20207;-80
2022/04/16 10:18:12;;;;;;;7.97;7.18;;;13.00;93.10;;;;;;4975633;28;20213;-79
2022/04/16 10:20:51;;;;;;;8.45;6.55;;;13.00;93.10;;;;;;4972902;28;20671;-79
2022/04/16 10:23:28;;;;;;;6.72;6.03;;;13.00;93.40;;;;;;4961395;28;20206;-79
2022/04/16 10:26:05;;;;;;;8.15;6.32;;;13.10;92.40;;;;;;4975576;28;20200;-79
2022/04/16 10:28:39;;;;;;;7.13;6.43;;;13.10;93.10;;;;;;4952214;29;20240;-79
2022/04/16 10:31:07;;;;;;;11.98;6.45;;;13.20;92.20;;;;;;4958015;28;20201;-79
2022/04/16 10:33:34;;;;;;;8.38;6.15;;;13.30;91.80;;;;;;4988365;28;20207;-77
2022/04/16 10:36:03;;;;;;;6.90;6.20;;;13.80;94.20;;;;;;4974437;28;20208;-77
2022/04/16 10:38:37;;;;;;;7.40;6.70;;;14.10;93.80;;;;;;4960236;28;20231;-76
2022/04/16 10:41:14;;;;;;;6.53;5.88;;;14.10;91.40;;;;;;4962350;28;20221;-77
2022/04/16 10:43:59;;;;;;;6.28;5.78;;;14.10;92.20;;;;;;4975016;28;20209;-77
2022/04/16 10:46:41;;;;;;;9.27;7.05;;;14.50;91.30;;;;;;4964834;28;20208;-76
2022/04/16 10:49:11;;;;;;;7.60;6.90;;;14.30;89.50;;;;;;4963487;28;20567;-76
2022/04/16 10:51:38;;;;;;;7.65;6.85;;;14.20;85.80;;;;;;4977158;28;20205;-76
2022/04/16 10:54:10;;;;;;;9.75;7.50;;;13.80;87.80;;;;;;4990957;28;20224;-77
2022/04/16 10:56:40;;;;;;;6.05;5.55;;;13.60;86.20;;;;;;4979173;28;20230;-76
2022/04/16 10:59:11;;;;;;;7.93;6.72;;;14.10;89.20;;;;;;4953360;28;20200;-77
2022/04/16 11:01:39;;;;;;;7.18;6.47;;;14.10;89.10;;;;;;4964521;28;20189;-77
2022/04/16 11:04:14;;;;;;;6.35;5.75;;;14.50;83.70;;;;;;4973640;28;20215;-77
2022/04/16 11:06:45;;;;;;;6.43;5.38;;;14.50;78.50;;;;;;4969114;28;20220;-77
2022/04/16 11:09:13;;;;;;;6.20;5.60;;;14.70;73.70;;;;;;4970208;28;20212;-76
2022/04/16 11:11:41;;;;;;;6.65;5.43;;;14.90;71.30;;;;;;4975172;28;20204;-78
2022/04/16 11:14:16;;;;;;;6.25;5.65;;;15.00;72.60;;;;;;4975106;28;20205;-77
2022/04/16 11:16:44;;;;;;;8.15;6.32;;;15.10;71.50;;;;;;4962280;28;20225;-78
2022/04/16 11:19:13;;;;;;;5.88;5.38;;;15.00;70.40;;;;;;4972275;28;20630;-77
2022/04/16 11:21:41;;;;;;;6.82;5.95;;;15.00;68.60;;;;;;4967990;28;20668;-77
2022/04/16 11:24:08;;;;;;;6.20;5.60;;;14.60;68.00;;;;;;4976110;28;20211;-77
2022/04/16 11:34:54;;;;;;;5.38;4.82;;;15.10;64.50;;;;;;4967659;28;20204;-77
2022/04/16 11:37:29;;;;;;;5.32;4.50;;;15.10;61.40;;;;;;4978350;28;20224;-77
2022/04/16 11:40:00;;;;;;;4.30;3.90;;;14.90;60.90;;;;;;4994831;28;20208;-77
2022/04/16 11:42:29;;;;;;;4.57;4.18;;;15.40;61.20;;;;;;4977017;28;20193;-76
2022/04/16 11:44:59;;;;;;;4.90;4.40;;;15.30;58.30;;;;;;4972487;28;20213;-77
2022/04/16 11:47:30;;;;;;;4.55;4.03;;;15.10;59.40;;;;;;4965762;28;20244;-77
2022/04/16 11:50:00;;;;;;;4.85;3.97;;;15.60;58.90;;;;;;4974134;28;20211;-78
2022/04/16 11:52:29;;;;;;;4.22;3.40;;;15.80;59.60;;;;;;4976561;28;20209;-77
2022/04/16 11:55:05;;;;;;;5.38;3.88;;;16.00;56.40;;;;;;4973120;28;20212;-77
2022/04/16 11:57:32;;;;;;;4.50;3.83;;;16.00;55.00;;;;;;4962220;28;20228;-77
2022/04/16 12:00:04;;;;;;;3.60;3.30;;;15.60;54.60;;;;;;4986092;28;20211;-76
2022/04/16 12:02:35;;;;;;;4.18;3.28;;;15.80;56.70;;;;;;4985801;28;20223;-76
2022/04/16 12:05:11;;;;;;;3.55;3.03;;;15.70;60.80;;;;;;4975990;28;20208;-75
2022/04/16 12:07:41;;;;;;;4.05;2.78;;;15.80;57.90;;;;;;4976203;28;20232;-75
2022/04/16 12:10:10;;;;;;;3.60;2.80;;;16.40;54.70;;;;;;4974586;28;20197;-76
2022/04/16 12:12:47;;;;;;;3.05;2.67;;;16.30;53.00;;;;;;4972308;28;20205;-76
2022/04/16 12:15:23;;;;;;;3.10;2.72;;;16.20;55.20;;;;;;4988280;28;20213;-76
2022/04/16 12:17:52;;;;;;;4.68;2.97;;;16.30;54.50;;;;;;4970273;28;20216;-77
2022/04/16 12:20:21;;;;;;;3.08;2.72;;;16.80;51.20;;;;;;4962545;28;20224;-75
2022/04/16 12:22:50;;;;;;;3.67;2.78;;;16.40;49.30;;;;;;4977938;28;20199;-77
2022/04/16 12:25:24;;;;;;;4.03;2.90;;;16.20;50.30;;;;;;4975442;28;20194;-77
2022/04/16 12:27:52;;;;;;;3.53;2.88;;;16.70;50.20;;;;;;4988056;28;20229;-80
2022/04/16 12:30:24;;;;;;;4.30;2.58;;;16.90;49.50;;;;;;4970523;28;20197;-77
2022/04/16 12:32:59;;;;;;;3.92;2.40;;;16.20;48.40;;;;;;4963766;28;20201;-78
2022/04/16 12:35:27;;;;;;;2.90;2.00;;;16.10;49.90;;;;;;4970731;28;20200;-77
2022/04/16 12:37:54;;;;;;;2.83;2.28;;;15.80;48.30;;;;;;4965120;28;20230;-77
2022/04/16 12:40:22;;;;;;;3.50;2.72;;;16.30;50.40;;;;;;4986516;28;20212;-77
2022/04/16 12:42:49;;;;;;;3.25;2.10;;;16.60;48.90;;;;;;4967578;28;20201;-78
2022/04/16 12:45:22;;;;;;;3.83;2.20;;;16.80;48.00;;;;;;4969266;28;20208;-77
2022/04/16 12:47:50;;;;;;;3.65;2.42;;;16.90;45.60;;;;;;4967493;28;20214;-77
2022/04/16 12:50:17;;;;;;;2.83;2.22;;;16.30;45.80;;;;;;4970548;28;20202;-77
2022/04/16 12:52:47;;;;;;;2.40;2.20;;;16.70;47.20;;;;;;4991381;28;20201;-78
2022/04/16 12:55:15;;;;;;;1.95;1.70;;;17.20;45.50;;;;;;4965421;28;20197;-77
2022/04/16 12:57:44;;;;;;;2.83;1.58;;;17.30;47.10;;;;;;4970966;28;20221;-77
2022/04/16 13:00:13;;;;;;;2.97;1.90;;;17.90;45.80;;;;;;4970907;28;20210;-79
2022/04/16 13:02:43;;;;;;;2.05;1.73;;;16.90;44.60;;;;;;4968280;28;20193;-77
2022/04/16 13:05:12;;;;;;;2.30;2.00;;;17.40;42.70;;;;;;4972881;28;20217;-78
2022/04/16 13:07:40;;;;;;;1.73;1.60;;;17.50;43.70;;;;;;4962162;28;20675;-78
2022/04/16 13:10:09;;;;;;;2.55;2.30;;;17.50;43.30;;;;;;4964583;28;20212;-78
2022/04/16 13:12:37;;;;;;;3.65;2.10;;;17.50;42.70;;;;;;4963280;28;20205;-78
2022/04/16 13:15:05;;;;;;;2.55;1.60;;;18.00;41.40;;;;;;4970231;28;20201;-78
2022/04/16 13:17:33;;;;;;;3.45;1.50;;;18.20;40.00;;;;;;4952476;28;20221;-78
2022/04/16 13:20:12;;;;;;;1.98;1.42;;;18.50;39.70;;;;;;4966187;28;20208;-77
2022/04/16 13:22:39;;;;;;;1.65;1.52;;;18.10;40.30;;;;;;4969919;28;20196;-77
2022/04/16 13:25:08;;;;;;;2.35;1.50;;;18.30;40.40;;;;;;4974489;28;20212;-76